sensor_id;sensor_type;location;lat;lon;timestamp;P1;durP1;ratioP1;P2;durP2;ratioP2
79399;SDS011;68856;45.586;10.264;2023-09-12T00:00:36;23.73;;;21.13;;
79399;SDS011;68856;45.586;10.264;2023-09-12T00:03:02;25.50;;;22.80;;
79399;SDS011;68856;45.586;10.264;2023-09-12T00:05:28;27.60;;;21.52;;
79399;SDS011;68856;45.586;10.264;2023-09-12T00:07:55;25.67;;;23.17;;
79399;SDS011;68856;45.586;10.264;2023-09-12T00:10:21;23.90;;;21.50;;
79399;SDS011;68856;45.586;10.264;2023-09-12T00:12:47;25.92;;;22.60;;
79399;SDS011;68856;45.586;10.264;2023-09-12T00:15:13;25.70;;;23.20;;
79399;SDS011;68856;45.586;10.264;2023-09-12T00:17:40;25.50;;;22.45;;
79399;SDS011;68856;45.586;10.264;2023-09-12T00:20:06;24.85;;;22.35;;
79399;SDS011;68856;45.586;10.264;2023-09-12T00:22:33;25.17;;;22.65;;
79399;SDS011;68856;45.586;10.264;2023-09-12T00:24:59;25.45;;;21.67;;
79399;SDS011;68856;45.586;10.264;2023-09-12T00:27:25;26.45;;;23.77;;
79399;SDS011;68856;45.586;10.264;2023-09-12T00:29:51;26.17;;;23.35;;
79399;SDS011;68856;45.586;10.264;2023-09-12T00:32:18;28.83;;;23.77;;
79399;SDS011;68856;45.586;10.264;2023-09-12T00:34:44;25.52;;;22.75;;
79399;SDS011;68856;45.586;10.264;2023-09-12T00:37:10;24.27;;;21.70;;
79399;SDS011;68856;45.586;10.264;2023-09-12T00:39:37;26.27;;;23.73;;
79399;SDS011;68856;45.586;10.264;2023-09-12T00:42:03;28.25;;;23.75;;
79399;SDS011;68856;45.586;10.264;2023-09-12T00:44:32;25.88;;;23.42;;
79399;SDS011;68856;45.586;10.264;2023-09-12T00:46:58;28.95;;;24.13;;
79399;SDS011;68856;45.586;10.264;2023-09-12T00:49:27;26.73;;;23.95;;
79399;SDS011;68856;45.586;10.264;2023-09-12T00:51:54;28.35;;;23.42;;
79399;SDS011;68856;45.586;10.264;2023-09-12T00:54:21;25.73;;;23.13;;
79399;SDS011;68856;45.586;10.264;2023-09-12T00:56:48;26.55;;;23.77;;
79399;SDS011;68856;45.586;10.264;2023-09-12T00:59:15;30.88;;;24.48;;
79399;SDS011;68856;45.586;10.264;2023-09-12T01:01:42;27.58;;;24.88;;
79399;SDS011;68856;45.586;10.264;2023-09-12T01:04:09;27.35;;;24.52;;
79399;SDS011;68856;45.586;10.264;2023-09-12T01:06:36;25.73;;;23.00;;
79399;SDS011;68856;45.586;10.264;2023-09-12T01:09:03;28.55;;;23.30;;
79399;SDS011;68856;45.586;10.264;2023-09-12T01:11:30;27.33;;;24.45;;
79399;SDS011;68856;45.586;10.264;2023-09-12T01:13:57;26.55;;;23.85;;
79399;SDS011;68856;45.586;10.264;2023-09-12T01:16:23;27.67;;;24.88;;
79399;SDS011;68856;45.586;10.264;2023-09-12T01:18:50;27.00;;;24.15;;
79399;SDS011;68856;45.586;10.264;2023-09-12T01:29:23;32.08;;;25.33;;
79399;SDS011;68856;45.586;10.264;2023-09-12T01:31:50;28.20;;;25.20;;
79399;SDS011;68856;45.586;10.264;2023-09-12T01:34:17;28.48;;;25.60;;
79399;SDS011;68856;45.586;10.264;2023-09-12T01:36:44;29.05;;;26.05;;
79399;SDS011;68856;45.586;10.264;2023-09-12T01:39:10;29.70;;;26.50;;
79399;SDS011;68856;45.586;10.264;2023-09-12T01:41:40;29.02;;;25.52;;
79399;SDS011;68856;45.586;10.264;2023-09-12T01:44:09;28.27;;;25.27;;
79399;SDS011;68856;45.586;10.264;2023-09-12T01:46:36;28.83;;;25.67;;
79399;SDS011;68856;45.586;10.264;2023-09-12T01:49:04;30.17;;;25.77;;
79399;SDS011;68856;45.586;10.264;2023-09-12T01:51:33;28.00;;;25.02;;
79399;SDS011;68856;45.586;10.264;2023-09-12T01:53:59;30.02;;;26.80;;
79399;SDS011;68856;45.586;10.264;2023-09-12T01:56:28;29.33;;;26.17;;
79399;SDS011;68856;45.586;10.264;2023-09-12T01:58:55;29.98;;;26.77;;
79399;SDS011;68856;45.586;10.264;2023-09-12T02:01:22;34.60;;;27.05;;
79399;SDS011;68856;45.586;10.264;2023-09-12T02:03:52;30.55;;;27.25;;
79399;SDS011;68856;45.586;10.264;2023-09-12T02:06:18;30.20;;;27.20;;
79399;SDS011;68856;45.586;10.264;2023-09-12T02:08:44;28.15;;;25.17;;
79399;SDS011;68856;45.586;10.264;2023-09-12T02:11:11;29.50;;;26.30;;
79399;SDS011;68856;45.586;10.264;2023-09-12T02:13:37;29.23;;;26.15;;
79399;SDS011;68856;45.586;10.264;2023-09-12T02:16:03;30.20;;;27.17;;
79399;SDS011;68856;45.586;10.264;2023-09-12T02:18:29;29.85;;;26.75;;
79399;SDS011;68856;45.586;10.264;2023-09-12T02:20:57;32.38;;;26.35;;
79399;SDS011;68856;45.586;10.264;2023-09-12T02:23:24;30.90;;;26.65;;
79399;SDS011;68856;45.586;10.264;2023-09-12T02:25:50;30.75;;;27.65;;
79399;SDS011;68856;45.586;10.264;2023-09-12T02:28:16;30.25;;;27.08;;
79399;SDS011;68856;45.586;10.264;2023-09-12T02:30:42;28.83;;;25.80;;
79399;SDS011;68856;45.586;10.264;2023-09-12T02:33:09;28.55;;;25.50;;
79399;SDS011;68856;45.586;10.264;2023-09-12T02:35:35;32.00;;;27.58;;
79399;SDS011;68856;45.586;10.264;2023-09-12T02:38:01;32.63;;;27.98;;
79399;SDS011;68856;45.586;10.264;2023-09-12T02:40:28;31.08;;;27.67;;
79399;SDS011;68856;45.586;10.264;2023-09-12T02:42:54;31.05;;;27.80;;
79399;SDS011;68856;45.586;10.264;2023-09-12T02:45:20;32.55;;;29.13;;
79399;SDS011;68856;45.586;10.264;2023-09-12T02:47:46;31.40;;;28.00;;
79399;SDS011;68856;45.586;10.264;2023-09-12T02:50:13;31.13;;;27.58;;
79399;SDS011;68856;45.586;10.264;2023-09-12T02:52:39;32.55;;;28.73;;
79399;SDS011;68856;45.586;10.264;2023-09-12T02:55:05;31.13;;;27.85;;
79399;SDS011;68856;45.586;10.264;2023-09-12T02:57:32;34.33;;;29.42;;
79399;SDS011;68856;45.586;10.264;2023-09-12T02:59:58;32.17;;;28.70;;
79399;SDS011;68856;45.586;10.264;2023-09-12T03:02:24;30.48;;;27.38;;
79399;SDS011;68856;45.586;10.264;2023-09-12T03:04:53;32.53;;;28.60;;
79399;SDS011;68856;45.586;10.264;2023-09-12T03:07:19;30.73;;;27.50;;
79399;SDS011;68856;45.586;10.264;2023-09-12T03:09:49;28.75;;;25.80;;
79399;SDS011;68856;45.586;10.264;2023-09-12T03:12:15;31.03;;;27.73;;
79399;SDS011;68856;45.586;10.264;2023-09-12T03:14:42;33.60;;;28.63;;
79399;SDS011;68856;45.586;10.264;2023-09-12T03:17:08;34.75;;;28.92;;
79399;SDS011;68856;45.586;10.264;2023-09-12T03:19:34;33.03;;;28.52;;
79399;SDS011;68856;45.586;10.264;2023-09-12T03:22:00;31.45;;;27.33;;
79399;SDS011;68856;45.586;10.264;2023-09-12T03:24:27;33.13;;;27.90;;
79399;SDS011;68856;45.586;10.264;2023-09-12T03:26:54;37.45;;;29.10;;
79399;SDS011;68856;45.586;10.264;2023-09-12T03:29:20;32.35;;;27.17;;
79399;SDS011;68856;45.586;10.264;2023-09-12T03:31:46;30.67;;;27.52;;
79399;SDS011;68856;45.586;10.264;2023-09-12T03:34:12;34.33;;;26.70;;
79399;SDS011;68856;45.586;10.264;2023-09-12T03:36:39;30.90;;;27.70;;
79399;SDS011;68856;45.586;10.264;2023-09-12T03:39:05;30.05;;;26.88;;
79399;SDS011;68856;45.586;10.264;2023-09-12T03:41:33;32.20;;;28.77;;
79399;SDS011;68856;45.586;10.264;2023-09-12T03:44:00;31.17;;;27.10;;
79399;SDS011;68856;45.586;10.264;2023-09-12T03:46:27;32.55;;;29.02;;
79399;SDS011;68856;45.586;10.264;2023-09-12T03:48:53;32.55;;;28.40;;
79399;SDS011;68856;45.586;10.264;2023-09-12T03:51:19;31.63;;;27.88;;
79399;SDS011;68856;45.586;10.264;2023-09-12T03:53:45;34.40;;;28.75;;
79399;SDS011;68856;45.586;10.264;2023-09-12T03:56:13;39.20;;;30.75;;
79399;SDS011;68856;45.586;10.264;2023-09-12T03:58:40;36.88;;;31.40;;
79399;SDS011;68856;45.586;10.264;2023-09-12T04:01:06;34.67;;;30.95;;
79399;SDS011;68856;45.586;10.264;2023-09-12T04:03:33;34.10;;;30.23;;
79399;SDS011;68856;45.586;10.264;2023-09-12T04:05:59;33.67;;;30.08;;
79399;SDS011;68856;45.586;10.264;2023-09-12T04:08:25;33.92;;;30.23;;
79399;SDS011;68856;45.586;10.264;2023-09-12T04:10:51;40.45;;;30.77;;
79399;SDS011;68856;45.586;10.264;2023-09-12T04:13:18;33.10;;;29.55;;
79399;SDS011;68856;45.586;10.264;2023-09-12T04:15:44;34.35;;;30.65;;
79399;SDS011;68856;45.586;10.264;2023-09-12T04:18:10;32.05;;;28.42;;
79399;SDS011;68856;45.586;10.264;2023-09-12T04:20:36;35.28;;;28.85;;
79399;SDS011;68856;45.586;10.264;2023-09-12T04:23:03;34.47;;;30.17;;
79399;SDS011;68856;45.586;10.264;2023-09-12T04:25:29;32.60;;;29.13;;
79399;SDS011;68856;45.586;10.264;2023-09-12T04:27:56;32.42;;;28.80;;
79399;SDS011;68856;45.586;10.264;2023-09-12T04:30:22;33.30;;;29.75;;
79399;SDS011;68856;45.586;10.264;2023-09-12T04:32:49;34.70;;;30.50;;
79399;SDS011;68856;45.586;10.264;2023-09-12T04:35:15;35.58;;;31.23;;
79399;SDS011;68856;45.586;10.264;2023-09-12T04:37:44;33.45;;;29.05;;
79399;SDS011;68856;45.586;10.264;2023-09-12T04:40:11;33.85;;;30.25;;
79399;SDS011;68856;45.586;10.264;2023-09-12T04:42:37;32.78;;;29.30;;
79399;SDS011;68856;45.586;10.264;2023-09-12T04:45:04;31.70;;;28.27;;
79399;SDS011;68856;45.586;10.264;2023-09-12T04:47:31;33.53;;;29.38;;
79399;SDS011;68856;45.586;10.264;2023-09-12T04:49:57;33.10;;;28.60;;
79399;SDS011;68856;45.586;10.264;2023-09-12T04:52:23;35.30;;;29.05;;
79399;SDS011;68856;45.586;10.264;2023-09-12T04:54:49;34.65;;;29.55;;
79399;SDS011;68856;45.586;10.264;2023-09-12T04:57:16;34.35;;;30.73;;
79399;SDS011;68856;45.586;10.264;2023-09-12T04:59:42;33.85;;;30.10;;
79399;SDS011;68856;45.586;10.264;2023-09-12T05:02:08;35.95;;;30.08;;
79399;SDS011;68856;45.586;10.264;2023-09-12T05:04:34;36.80;;;30.10;;
79399;SDS011;68856;45.586;10.264;2023-09-12T05:07:01;38.55;;;30.55;;
79399;SDS011;68856;45.586;10.264;2023-09-12T05:09:27;34.08;;;28.77;;
79399;SDS011;68856;45.586;10.264;2023-09-12T05:11:53;33.40;;;29.85;;
79399;SDS011;68856;45.586;10.264;2023-09-12T05:14:19;32.28;;;28.75;;
79399;SDS011;68856;45.586;10.264;2023-09-12T05:16:46;34.95;;;31.00;;
79399;SDS011;68856;45.586;10.264;2023-09-12T05:19:12;34.55;;;28.85;;
79399;SDS011;68856;45.586;10.264;2023-09-12T05:21:38;36.40;;;30.55;;
79399;SDS011;68856;45.586;10.264;2023-09-12T05:24:04;33.78;;;27.58;;
79399;SDS011;68856;45.586;10.264;2023-09-12T05:26:31;31.73;;;28.30;;
79399;SDS011;68856;45.586;10.264;2023-09-12T05:28:57;35.28;;;30.42;;
79399;SDS011;68856;45.586;10.264;2023-09-12T05:31:23;36.42;;;31.13;;
79399;SDS011;68856;45.586;10.264;2023-09-12T05:33:49;34.25;;;30.42;;
79399;SDS011;68856;45.586;10.264;2023-09-12T05:36:16;35.60;;;30.90;;
79399;SDS011;68856;45.586;10.264;2023-09-12T05:38:42;37.65;;;30.63;;
79399;SDS011;68856;45.586;10.264;2023-09-12T05:41:08;33.55;;;29.65;;
79399;SDS011;68856;45.586;10.264;2023-09-12T05:43:35;33.60;;;29.08;;
79399;SDS011;68856;45.586;10.264;2023-09-12T05:46:01;36.42;;;30.25;;
79399;SDS011;68856;45.586;10.264;2023-09-12T05:48:28;37.63;;;30.15;;
79399;SDS011;68856;45.586;10.264;2023-09-12T05:50:54;37.20;;;32.88;;
79399;SDS011;68856;45.586;10.264;2023-09-12T05:53:20;36.28;;;30.77;;
79399;SDS011;68856;45.586;10.264;2023-09-12T05:55:46;43.55;;;31.20;;
79399;SDS011;68856;45.586;10.264;2023-09-12T05:58:13;36.15;;;31.00;;
79399;SDS011;68856;45.586;10.264;2023-09-12T06:00:39;36.25;;;32.20;;
79399;SDS011;68856;45.586;10.264;2023-09-12T06:03:06;36.08;;;31.90;;
79399;SDS011;68856;45.586;10.264;2023-09-12T06:05:32;36.42;;;31.30;;
79399;SDS011;68856;45.586;10.264;2023-09-12T06:07:59;36.88;;;30.67;;
79399;SDS011;68856;45.586;10.264;2023-09-12T06:10:25;37.75;;;32.53;;
79399;SDS011;68856;45.586;10.264;2023-09-12T06:12:51;36.05;;;32.17;;
79399;SDS011;68856;45.586;10.264;2023-09-12T06:15:18;36.70;;;32.47;;
79399;SDS011;68856;45.586;10.264;2023-09-12T06:17:44;34.22;;;30.45;;
79399;SDS011;68856;45.586;10.264;2023-09-12T06:20:10;40.03;;;30.73;;
79399;SDS011;68856;45.586;10.264;2023-09-12T06:22:37;34.25;;;30.58;;
79399;SDS011;68856;45.586;10.264;2023-09-12T06:25:03;40.40;;;30.55;;
79399;SDS011;68856;45.586;10.264;2023-09-12T06:27:31;40.28;;;32.35;;
79399;SDS011;68856;45.586;10.264;2023-09-12T06:29:57;33.35;;;29.80;;
79399;SDS011;68856;45.586;10.264;2023-09-12T06:32:23;31.83;;;28.52;;
79399;SDS011;68856;45.586;10.264;2023-09-12T06:34:49;34.15;;;29.60;;
79399;SDS011;68856;45.586;10.264;2023-09-12T06:37:16;34.22;;;29.15;;
79399;SDS011;68856;45.586;10.264;2023-09-12T06:39:42;32.53;;;29.10;;
79399;SDS011;68856;45.586;10.264;2023-09-12T06:42:08;32.20;;;28.45;;
79399;SDS011;68856;45.586;10.264;2023-09-12T06:44:35;31.55;;;27.85;;
79399;SDS011;68856;45.586;10.264;2023-09-12T06:47:03;32.78;;;29.27;;
79399;SDS011;68856;45.586;10.264;2023-09-12T06:49:30;33.53;;;30.00;;
79399;SDS011;68856;45.586;10.264;2023-09-12T06:51:57;32.78;;;29.27;;
79399;SDS011;68856;45.586;10.264;2023-09-12T06:54:23;32.13;;;28.80;;
79399;SDS011;68856;45.586;10.264;2023-09-12T06:56:50;32.50;;;28.35;;
79399;SDS011;68856;45.586;10.264;2023-09-12T06:59:16;34.25;;;28.98;;
79399;SDS011;68856;45.586;10.264;2023-09-12T07:01:42;35.55;;;27.50;;
79399;SDS011;68856;45.586;10.264;2023-09-12T07:04:10;34.65;;;28.00;;
79399;SDS011;68856;45.586;10.264;2023-09-12T07:06:36;31.48;;;27.27;;
79399;SDS011;68856;45.586;10.264;2023-09-12T07:09:02;34.50;;;28.55;;
79399;SDS011;68856;45.586;10.264;2023-09-12T07:11:29;35.15;;;29.48;;
79399;SDS011;68856;45.586;10.264;2023-09-12T07:13:56;31.70;;;27.48;;
79399;SDS011;68856;45.586;10.264;2023-09-12T07:16:22;34.67;;;28.95;;
79399;SDS011;68856;45.586;10.264;2023-09-12T07:18:49;31.40;;;27.52;;
79399;SDS011;68856;45.586;10.264;2023-09-12T07:21:15;30.52;;;27.30;;
79399;SDS011;68856;45.586;10.264;2023-09-12T07:23:41;30.13;;;26.10;;
79399;SDS011;68856;45.586;10.264;2023-09-12T07:26:11;33.55;;;28.70;;
79399;SDS011;68856;45.586;10.264;2023-09-12T07:28:38;32.25;;;28.90;;
79399;SDS011;68856;45.586;10.264;2023-09-12T07:31:05;31.38;;;27.88;;
79399;SDS011;68856;45.586;10.264;2023-09-12T07:33:32;31.65;;;28.33;;
79399;SDS011;68856;45.586;10.264;2023-09-12T07:35:58;32.03;;;28.52;;
79399;SDS011;68856;45.586;10.264;2023-09-12T07:38:25;33.10;;;29.58;;
79399;SDS011;68856;45.586;10.264;2023-09-12T07:40:52;36.50;;;29.60;;
79399;SDS011;68856;45.586;10.264;2023-09-12T07:43:18;32.97;;;29.05;;
79399;SDS011;68856;45.586;10.264;2023-09-12T07:45:45;35.47;;;28.75;;
79399;SDS011;68856;45.586;10.264;2023-09-12T07:48:12;30.75;;;27.55;;
79399;SDS011;68856;45.586;10.264;2023-09-12T07:50:38;32.38;;;29.08;;
79399;SDS011;68856;45.586;10.264;2023-09-12T07:53:05;31.92;;;28.45;;
79399;SDS011;68856;45.586;10.264;2023-09-12T07:55:31;30.77;;;27.10;;
79399;SDS011;68856;45.586;10.264;2023-09-12T07:58:10;30.42;;;27.25;;
79399;SDS011;68856;45.586;10.264;2023-09-12T08:00:40;31.08;;;27.77;;
79399;SDS011;68856;45.586;10.264;2023-09-12T08:03:06;31.08;;;26.65;;
79399;SDS011;68856;45.586;10.264;2023-09-12T08:05:33;31.40;;;27.23;;
79399;SDS011;68856;45.586;10.264;2023-09-12T08:07:59;30.42;;;25.63;;
79399;SDS011;68856;45.586;10.264;2023-09-12T08:10:26;30.35;;;26.58;;
79399;SDS011;68856;45.586;10.264;2023-09-12T08:12:52;32.03;;;26.65;;
79399;SDS011;68856;45.586;10.264;2023-09-12T08:15:19;33.03;;;28.05;;
79399;SDS011;68856;45.586;10.264;2023-09-12T08:17:45;30.88;;;27.67;;
79399;SDS011;68856;45.586;10.264;2023-09-12T08:20:16;34.53;;;29.55;;
79399;SDS011;68856;45.586;10.264;2023-09-12T08:22:43;32.88;;;28.60;;
79399;SDS011;68856;45.586;10.264;2023-09-12T08:25:09;36.08;;;29.25;;
79399;SDS011;68856;45.586;10.264;2023-09-12T08:27:37;86.15;;;40.75;;
79399;SDS011;68856;45.586;10.264;2023-09-12T08:30:03;33.20;;;28.00;;
79399;SDS011;68856;45.586;10.264;2023-09-12T08:32:30;111.63;;;46.53;;
79399;SDS011;68856;45.586;10.264;2023-09-12T08:34:56;68.60;;;32.25;;
79399;SDS011;68856;45.586;10.264;2023-09-12T08:37:24;31.55;;;27.42;;
79399;SDS011;68856;45.586;10.264;2023-09-12T08:39:50;30.05;;;24.95;;
79399;SDS011;68856;45.586;10.264;2023-09-12T08:42:21;33.90;;;28.08;;
79399;SDS011;68856;45.586;10.264;2023-09-12T08:44:48;28.52;;;25.08;;
79399;SDS011;68856;45.586;10.264;2023-09-12T08:47:15;30.52;;;24.88;;
79399;SDS011;68856;45.586;10.264;2023-09-12T08:49:44;26.67;;;23.73;;
79399;SDS011;68856;45.586;10.264;2023-09-12T08:52:10;26.10;;;22.55;;
79399;SDS011;68856;45.586;10.264;2023-09-12T08:54:37;26.77;;;23.08;;
79399;SDS011;68856;45.586;10.264;2023-09-12T08:57:03;24.70;;;21.45;;
79399;SDS011;68856;45.586;10.264;2023-09-12T08:59:32;25.15;;;22.30;;
79399;SDS011;68856;45.586;10.264;2023-09-12T09:02:00;26.60;;;21.17;;
79399;SDS011;68856;45.586;10.264;2023-09-12T09:04:31;23.25;;;20.65;;
79399;SDS011;68856;45.586;10.264;2023-09-12T09:06:59;28.88;;;23.50;;
79399;SDS011;68856;45.586;10.264;2023-09-12T09:09:28;26.20;;;21.85;;
79399;SDS011;68856;45.586;10.264;2023-09-12T09:11:55;24.40;;;19.05;;
79399;SDS011;68856;45.586;10.264;2023-09-12T09:14:21;25.88;;;23.05;;
79399;SDS011;68856;45.586;10.264;2023-09-12T09:16:48;26.17;;;23.35;;
79399;SDS011;68856;45.586;10.264;2023-09-12T09:19:15;26.40;;;23.63;;
79399;SDS011;68856;45.586;10.264;2023-09-12T09:21:43;28.58;;;25.27;;
79399;SDS011;68856;45.586;10.264;2023-09-12T09:24:10;25.20;;;21.13;;
79399;SDS011;68856;45.586;10.264;2023-09-12T09:26:44;24.80;;;19.33;;
79399;SDS011;68856;45.586;10.264;2023-09-12T09:29:16;25.02;;;22.15;;
79399;SDS011;68856;45.586;10.264;2023-09-12T09:31:43;28.83;;;24.38;;
79399;SDS011;68856;45.586;10.264;2023-09-12T09:34:14;28.75;;;22.52;;
79399;SDS011;68856;45.586;10.264;2023-09-12T09:36:43;33.97;;;26.20;;
79399;SDS011;68856;45.586;10.264;2023-09-12T09:39:13;34.75;;;27.13;;
79399;SDS011;68856;45.586;10.264;2023-09-12T09:41:41;25.55;;;21.95;;
79399;SDS011;68856;45.586;10.264;2023-09-12T09:44:08;32.33;;;28.80;;
79399;SDS011;68856;45.586;10.264;2023-09-12T09:46:35;27.35;;;24.05;;
79399;SDS011;68856;45.586;10.264;2023-09-12T09:49:02;32.70;;;26.67;;
79399;SDS011;68856;45.586;10.264;2023-09-12T09:51:32;32.67;;;26.45;;
79399;SDS011;68856;45.586;10.264;2023-09-12T09:54:07;29.00;;;25.58;;
79399;SDS011;68856;45.586;10.264;2023-09-12T09:56:34;34.83;;;24.85;;
79399;SDS011;68856;45.586;10.264;2023-09-12T09:59:13;30.92;;;27.40;;
79399;SDS011;68856;45.586;10.264;2023-09-12T10:01:41;32.58;;;27.60;;
79399;SDS011;68856;45.586;10.264;2023-09-12T10:04:10;32.03;;;28.65;;
79399;SDS011;68856;45.586;10.264;2023-09-12T10:06:36;38.78;;;33.33;;
79399;SDS011;68856;45.586;10.264;2023-09-12T10:09:10;40.72;;;33.30;;
79399;SDS011;68856;45.586;10.264;2023-09-12T10:11:42;34.13;;;28.25;;
79399;SDS011;68856;45.586;10.264;2023-09-12T10:14:10;39.25;;;33.45;;
79399;SDS011;68856;45.586;10.264;2023-09-12T10:16:45;36.97;;;30.40;;
79399;SDS011;68856;45.586;10.264;2023-09-12T10:19:14;32.00;;;28.33;;
79399;SDS011;68856;45.586;10.264;2023-09-12T10:24:42;37.92;;;33.35;;
79399;SDS011;68856;45.586;10.264;2023-09-12T10:27:11;33.85;;;30.17;;
79399;SDS011;68856;45.586;10.264;2023-09-12T10:29:38;37.03;;;33.05;;
79399;SDS011;68856;45.586;10.264;2023-09-12T10:32:05;35.75;;;31.83;;
79399;SDS011;68856;45.586;10.264;2023-09-12T10:34:33;39.90;;;32.45;;
79399;SDS011;68856;45.586;10.264;2023-09-12T10:37:02;38.45;;;34.25;;
79399;SDS011;68856;45.586;10.264;2023-09-12T10:39:31;36.05;;;30.33;;
79399;SDS011;68856;45.586;10.264;2023-09-12T10:44:30;37.13;;;32.83;;
79399;SDS011;68856;45.586;10.264;2023-09-12T10:46:57;38.63;;;34.47;;
79399;SDS011;68856;45.586;10.264;2023-09-12T10:49:23;35.40;;;31.80;;
79399;SDS011;68856;45.586;10.264;2023-09-12T10:51:50;31.75;;;28.35;;
79399;SDS011;68856;45.586;10.264;2023-09-12T10:54:25;33.15;;;28.67;;
79399;SDS011;68856;45.586;10.264;2023-09-12T10:57:07;31.83;;;27.17;;
79399;SDS011;68856;45.586;10.264;2023-09-12T11:02:39;33.33;;;29.92;;
79399;SDS011;68856;45.586;10.264;2023-09-12T11:07:52;38.60;;;30.60;;
79399;SDS011;68856;45.586;10.264;2023-09-12T11:10:23;35.67;;;31.88;;
79399;SDS011;68856;45.586;10.264;2023-09-12T11:12:54;34.40;;;30.83;;
79399;SDS011;68856;45.586;10.264;2023-09-12T11:15:25;32.70;;;29.27;;
79399;SDS011;68856;45.586;10.264;2023-09-12T11:20:25;36.63;;;32.40;;
79399;SDS011;68856;45.586;10.264;2023-09-12T11:23:11;38.50;;;31.13;;
79399;SDS011;68856;45.586;10.264;2023-09-12T11:25:38;36.92;;;31.30;;
79399;SDS011;68856;45.586;10.264;2023-09-12T11:28:05;32.75;;;28.65;;
79399;SDS011;68856;45.586;10.264;2023-09-12T11:30:31;31.48;;;28.10;;
79399;SDS011;68856;45.586;10.264;2023-09-12T11:32:59;32.63;;;27.83;;
79399;SDS011;68856;45.586;10.264;2023-09-12T11:35:28;32.70;;;27.98;;
79399;SDS011;68856;45.586;10.264;2023-09-12T11:38:00;33.10;;;29.38;;
79399;SDS011;68856;45.586;10.264;2023-09-12T11:43:00;34.65;;;30.00;;
79399;SDS011;68856;45.586;10.264;2023-09-12T11:45:27;30.38;;;25.70;;
79399;SDS011;68856;45.586;10.264;2023-09-12T11:47:53;24.77;;;22.17;;
79399;SDS011;68856;45.586;10.264;2023-09-12T11:50:26;22.58;;;20.33;;
79399;SDS011;68856;45.586;10.264;2023-09-12T11:53:02;25.70;;;21.65;;
79399;SDS011;68856;45.586;10.264;2023-09-12T11:55:31;23.35;;;20.75;;
79399;SDS011;68856;45.586;10.264;2023-09-12T11:58:00;26.83;;;21.77;;
79399;SDS011;68856;45.586;10.264;2023-09-12T12:00:27;24.35;;;21.75;;
79399;SDS011;68856;45.586;10.264;2023-09-12T12:02:54;27.55;;;24.70;;
79399;SDS011;68856;45.586;10.264;2023-09-12T12:05:21;25.85;;;23.48;;
79399;SDS011;68856;45.586;10.264;2023-09-12T12:07:48;28.38;;;23.15;;
79399;SDS011;68856;45.586;10.264;2023-09-12T12:10:18;32.53;;;24.35;;
79399;SDS011;68856;45.586;10.264;2023-09-12T12:12:44;34.47;;;26.25;;
79399;SDS011;68856;45.586;10.264;2023-09-12T12:15:11;28.52;;;25.73;;
79399;SDS011;68856;45.586;10.264;2023-09-12T12:17:41;29.95;;;26.77;;
79399;SDS011;68856;45.586;10.264;2023-09-12T12:20:10;28.85;;;25.95;;
79399;SDS011;68856;45.586;10.264;2023-09-12T12:22:40;30.75;;;24.85;;
79399;SDS011;68856;45.586;10.264;2023-09-12T12:25:07;27.50;;;21.33;;
79399;SDS011;68856;45.586;10.264;2023-09-12T12:27:38;33.65;;;25.88;;
79399;SDS011;68856;45.586;10.264;2023-09-12T12:30:07;26.80;;;24.10;;
79399;SDS011;68856;45.586;10.264;2023-09-12T12:35:08;23.70;;;20.23;;
79399;SDS011;68856;45.586;10.264;2023-09-12T12:37:41;24.08;;;21.58;;
79399;SDS011;68856;45.586;10.264;2023-09-12T12:40:11;24.83;;;22.17;;
79399;SDS011;68856;45.586;10.264;2023-09-12T12:42:38;29.67;;;26.60;;
79399;SDS011;68856;45.586;10.264;2023-09-12T12:45:15;25.95;;;23.33;;
79399;SDS011;68856;45.586;10.264;2023-09-12T12:47:42;28.40;;;23.10;;
79399;SDS011;68856;45.586;10.264;2023-09-12T12:50:13;28.70;;;23.45;;
79399;SDS011;68856;45.586;10.264;2023-09-12T12:52:42;23.40;;;21.10;;
79399;SDS011;68856;45.586;10.264;2023-09-12T12:55:11;22.70;;;20.55;;
79399;SDS011;68856;45.586;10.264;2023-09-12T12:57:39;21.60;;;18.88;;
79399;SDS011;68856;45.586;10.264;2023-09-12T13:00:11;21.25;;;19.20;;
79399;SDS011;68856;45.586;10.264;2023-09-12T13:02:39;20.60;;;18.50;;
79399;SDS011;68856;45.586;10.264;2023-09-12T13:05:18;23.38;;;18.17;;
79399;SDS011;68856;45.586;10.264;2023-09-12T13:07:55;22.65;;;19.05;;
79399;SDS011;68856;45.586;10.264;2023-09-12T13:10:22;21.30;;;18.98;;
79399;SDS011;68856;45.586;10.264;2023-09-12T13:12:49;20.48;;;18.45;;
79399;SDS011;68856;45.586;10.264;2023-09-12T13:15:15;17.15;;;15.13;;
79399;SDS011;68856;45.586;10.264;2023-09-12T13:17:43;18.85;;;15.30;;
79399;SDS011;68856;45.586;10.264;2023-09-12T13:20:10;14.38;;;13.00;;
79399;SDS011;68856;45.586;10.264;2023-09-12T13:22:37;13.93;;;11.45;;
79399;SDS011;68856;45.586;10.264;2023-09-12T13:25:04;13.30;;;12.05;;
79399;SDS011;68856;45.586;10.264;2023-09-12T13:27:31;16.10;;;14.23;;
79399;SDS011;68856;45.586;10.264;2023-09-12T13:29:58;17.52;;;15.80;;
79399;SDS011;68856;45.586;10.264;2023-09-12T13:32:24;17.33;;;15.52;;
79399;SDS011;68856;45.586;10.264;2023-09-12T13:34:50;21.00;;;16.73;;
79399;SDS011;68856;45.586;10.264;2023-09-12T13:37:17;21.10;;;16.95;;
79399;SDS011;68856;45.586;10.264;2023-09-12T13:39:44;20.73;;;17.55;;
79399;SDS011;68856;45.586;10.264;2023-09-12T13:42:19;18.10;;;16.38;;
79399;SDS011;68856;45.586;10.264;2023-09-12T13:44:49;18.95;;;16.85;;
79399;SDS011;68856;45.586;10.264;2023-09-12T13:47:15;17.23;;;14.40;;
79399;SDS011;68856;45.586;10.264;2023-09-12T13:49:48;19.70;;;15.32;;
79399;SDS011;68856;45.586;10.264;2023-09-12T13:52:17;18.02;;;15.52;;
79399;SDS011;68856;45.586;10.264;2023-09-12T13:54:44;17.52;;;15.40;;
79399;SDS011;68856;45.586;10.264;2023-09-12T13:57:10;23.08;;;16.83;;
79399;SDS011;68856;45.586;10.264;2023-09-12T13:59:36;19.10;;;16.35;;
79399;SDS011;68856;45.586;10.264;2023-09-12T14:02:03;18.45;;;16.55;;
79399;SDS011;68856;45.586;10.264;2023-09-12T14:04:29;17.98;;;16.10;;
79399;SDS011;68856;45.586;10.264;2023-09-12T14:06:55;18.52;;;16.45;;
79399;SDS011;68856;45.586;10.264;2023-09-12T14:09:22;16.25;;;14.82;;
79399;SDS011;68856;45.586;10.264;2023-09-12T14:11:48;20.02;;;17.02;;
79399;SDS011;68856;45.586;10.264;2023-09-12T14:14:14;17.70;;;15.75;;
79399;SDS011;68856;45.586;10.264;2023-09-12T14:16:42;19.88;;;15.02;;
79399;SDS011;68856;45.586;10.264;2023-09-12T14:19:09;17.10;;;13.35;;
79399;SDS011;68856;45.586;10.264;2023-09-12T14:21:35;15.48;;;13.98;;
79399;SDS011;68856;45.586;10.264;2023-09-12T14:24:02;17.67;;;15.80;;
79399;SDS011;68856;45.586;10.264;2023-09-12T14:26:29;20.15;;;14.63;;
79399;SDS011;68856;45.586;10.264;2023-09-12T14:28:55;15.82;;;13.60;;
79399;SDS011;68856;45.586;10.264;2023-09-12T14:31:22;19.00;;;14.98;;
79399;SDS011;68856;45.586;10.264;2023-09-12T14:33:48;17.23;;;15.40;;
79399;SDS011;68856;45.586;10.264;2023-09-12T14:36:15;18.40;;;14.73;;